createdAt,value
2022-08-26T00:00:57.431Z,2.90
2022-08-26T00:03:59.755Z,2.70
2022-08-26T00:07:11.347Z,3.17
2022-08-26T00:10:50.251Z,3.10
2022-08-26T00:13:52.157Z,3.00
2022-08-26T00:17:27.486Z,3.03
2022-08-26T00:20:40.659Z,3.00
2022-08-26T00:23:46.919Z,2.83
2022-08-26T00:26:52.863Z,3.03
2022-08-26T00:29:54.711Z,3.20
2022-08-26T00:33:02.829Z,3.22
2022-08-26T00:36:05.442Z,3.17
2022-08-26T00:39:31.889Z,3.38
2022-08-26T00:46:18.598Z,3.13
2022-08-26T00:49:31.152Z,2.92
2022-08-26T00:52:33.636Z,3.08
2022-08-26T00:55:41.947Z,3.05
2022-08-26T00:59:00.257Z,3.28
2022-08-26T01:02:06.650Z,3.47
2022-08-26T01:10:11.936Z,3.17
2022-08-26T01:13:21.157Z,3.35
2022-08-26T01:16:25.807Z,3.17
2022-08-26T01:20:00.304Z,3.17
2022-08-26T01:23:59.535Z,2.80
2022-08-26T01:27:09.733Z,3.33
2022-08-26T01:30:18.215Z,3.50
2022-08-26T01:33:25.130Z,3.40
2022-08-26T01:36:28.704Z,3.47
2022-08-26T01:39:37.063Z,3.65
2022-08-26T01:42:44.625Z,3.70
2022-08-26T01:46:21.502Z,3.45
2022-08-26T01:49:34.398Z,3.70
2022-08-26T01:52:39.827Z,3.78
2022-08-26T01:55:52.965Z,3.25
2022-08-26T01:59:03.404Z,3.45
2022-08-26T02:02:05.799Z,3.40
2022-08-26T02:05:11.133Z,3.60
2022-08-26T02:08:14.212Z,3.78
2022-08-26T02:11:43.019Z,3.70
2022-08-26T02:14:50.398Z,3.33
2022-08-26T02:17:53.301Z,3.63
2022-08-26T02:20:57.516Z,3.60
2022-08-26T02:24:15.598Z,3.50
2022-08-26T02:27:32.281Z,3.90
2022-08-26T02:30:34.743Z,3.55
2022-08-26T02:33:37.858Z,3.55
2022-08-26T02:36:45.174Z,3.97
2022-08-26T02:39:47.240Z,3.70
2022-08-26T02:42:56.048Z,3.45
2022-08-26T02:46:06.712Z,3.80
2022-08-26T02:53:01.948Z,3.63
2022-08-26T02:56:08.611Z,3.70
2022-08-26T02:59:12.653Z,4.07
2022-08-26T03:02:16.860Z,3.92
2022-08-26T03:05:28.375Z,3.63
2022-08-26T03:08:30.351Z,3.97
2022-08-26T03:11:33.341Z,3.70
2022-08-26T03:14:41.107Z,3.67
2022-08-26T03:17:57.215Z,4.00
2022-08-26T03:21:09.180Z,3.75
2022-08-26T03:24:15.689Z,4.03
2022-08-26T03:27:17.714Z,3.85
2022-08-26T03:30:38.586Z,3.45
2022-08-26T03:33:47.376Z,3.47
2022-08-26T03:36:51.872Z,3.88
2022-08-26T03:39:53.608Z,3.63
2022-08-26T03:42:59.503Z,3.78
2022-08-26T03:49:08.142Z,3.80
2022-08-26T03:52:19.302Z,3.55
2022-08-26T03:55:25.398Z,3.72
2022-08-26T03:58:54.220Z,3.75
2022-08-26T04:01:59.032Z,3.45
2022-08-26T04:05:00.774Z,3.78
2022-08-26T04:08:11.676Z,3.50
2022-08-26T04:11:20.164Z,3.85
2022-08-26T04:14:25.957Z,3.70
2022-08-26T04:17:29.708Z,3.83
2022-08-26T04:20:39.329Z,4.00
2022-08-26T04:23:50.351Z,3.75
2022-08-26T04:26:52.581Z,4.20
2022-08-26T04:30:00.016Z,3.55
2022-08-26T04:33:13.175Z,3.80
2022-08-26T04:36:58.644Z,3.78
2022-08-26T04:40:00.533Z,3.58
2022-08-26T04:43:05.796Z,3.47
2022-08-26T04:46:13.679Z,3.45
2022-08-26T04:49:16.112Z,3.70
2022-08-26T04:52:23.031Z,3.33
2022-08-26T04:55:39.757Z,3.45
2022-08-26T04:58:52.437Z,3.70
2022-08-26T05:02:07.036Z,4.55
2022-08-26T05:05:10.698Z,4.25
2022-08-26T05:08:14.940Z,4.32
2022-08-26T05:11:17.439Z,3.95
2022-08-26T05:14:23.844Z,3.92
2022-08-26T05:17:33.466Z,3.92
2022-08-26T05:20:44.039Z,3.72
2022-08-26T05:23:48.299Z,3.88
2022-08-26T05:26:54.627Z,3.60
2022-08-26T05:29:58.435Z,3.58
2022-08-26T05:33:00.286Z,4.30
2022-08-26T05:36:11.978Z,4.22
2022-08-26T05:39:15.244Z,5.28
2022-08-26T05:42:18.212Z,4.20
2022-08-26T05:45:24.226Z,3.92
2022-08-26T05:48:25.952Z,4.20
2022-08-26T05:51:37.133Z,3.58
2022-08-26T05:54:39.974Z,3.95
2022-08-26T05:57:42.879Z,4.13
2022-08-26T06:00:45.256Z,4.18
2022-08-26T06:03:50.101Z,4.07
2022-08-26T06:06:55.070Z,4.18
2022-08-26T06:10:21.380Z,3.85
2022-08-26T06:13:21.576Z,3.63
2022-08-26T06:16:24.569Z,4.03
2022-08-26T06:19:34.520Z,3.67
2022-08-26T06:23:12.139Z,3.53
2022-08-26T06:26:16.617Z,3.30
2022-08-26T06:29:24.184Z,3.40
2022-08-26T06:32:26.682Z,3.53
2022-08-26T06:35:28.469Z,3.53
2022-08-26T06:38:30.992Z,3.60
2022-08-26T06:41:34.726Z,3.67
2022-08-26T06:44:36.523Z,3.35
2022-08-26T06:47:38.181Z,3.70
2022-08-26T06:50:40.997Z,4.03
2022-08-26T06:53:48.555Z,3.80
2022-08-26T06:56:50.385Z,3.70
2022-08-26T06:59:52.650Z,3.97
2022-08-26T07:02:54.308Z,4.00
2022-08-26T07:06:02.654Z,4.03
2022-08-26T07:09:09.703Z,3.65
2022-08-26T07:12:11.967Z,3.88
2022-08-26T07:15:13.720Z,4.40
2022-08-26T07:18:17.409Z,3.90
2022-08-26T07:21:21.131Z,3.83
2022-08-26T07:24:23.715Z,3.90
2022-08-26T07:27:30.351Z,3.83
2022-08-26T07:30:32.201Z,3.83
2022-08-26T07:33:34.456Z,3.40
2022-08-26T07:36:36.530Z,3.95
2022-08-26T07:39:40.378Z,3.95
2022-08-26T07:42:43.463Z,3.97
2022-08-26T07:45:45.856Z,3.80
2022-08-26T07:48:53.627Z,3.90
2022-08-26T07:51:56.752Z,4.00
2022-08-26T07:55:01.667Z,4.20
2022-08-26T07:58:04.470Z,4.00
2022-08-26T08:01:07.638Z,4.07
2022-08-26T08:04:12.403Z,3.80
2022-08-26T08:07:15.652Z,3.95
2022-08-26T08:10:22.156Z,3.90
2022-08-26T08:13:28.013Z,3.85
2022-08-26T08:16:32.361Z,3.88
2022-08-26T08:19:37.014Z,3.72
2022-08-26T08:22:41.289Z,4.13
2022-08-26T08:25:44.751Z,3.95
2022-08-26T08:28:47.845Z,4.18
2022-08-26T08:31:56.819Z,4.20
2022-08-26T08:35:00.219Z,4.07
2022-08-26T08:38:04.281Z,4.00
2022-08-26T08:41:06.490Z,4.70
2022-08-26T08:44:19.232Z,4.00
2022-08-26T08:47:24.167Z,4.00
2022-08-26T08:50:45.729Z,4.22
2022-08-26T08:53:54.609Z,3.92
2022-08-26T08:57:07.173Z,3.67
2022-08-26T09:00:13.999Z,3.83
2022-08-26T09:03:40.529Z,4.07
2022-08-26T09:06:44.397Z,3.88
2022-08-26T09:09:52.058Z,4.25
2022-08-26T09:12:54.507Z,3.85
2022-08-26T09:16:15.904Z,3.75
2022-08-26T09:19:40.392Z,3.80
2022-08-26T09:22:44.313Z,4.00
2022-08-26T09:25:49.622Z,4.15
2022-08-26T09:29:03.639Z,4.25
2022-08-26T09:32:21.957Z,4.35
2022-08-26T09:35:28.539Z,4.57
2022-08-26T09:38:34.468Z,3.88
2022-08-26T09:41:37.128Z,3.90
2022-08-26T09:44:54.447Z,4.05
2022-08-26T09:47:57.904Z,3.78
2022-08-26T09:51:07.225Z,3.92
2022-08-26T09:54:30.463Z,3.90
2022-08-26T09:57:44.854Z,3.75
2022-08-26T10:00:58.000Z,3.95
2022-08-26T10:04:20.946Z,3.80
2022-08-26T10:07:44.455Z,3.95
2022-08-26T10:10:46.923Z,3.85
2022-08-26T10:13:59.569Z,4.13
2022-08-26T10:17:14.561Z,4.28
2022-08-26T10:20:35.324Z,3.67
2022-08-26T10:23:42.770Z,3.83
2022-08-26T10:26:49.725Z,3.90
2022-08-26T10:29:57.246Z,4.05
2022-08-26T10:33:12.926Z,3.58
2022-08-26T10:36:52.325Z,3.60
2022-08-26T10:40:07.999Z,3.85
2022-08-26T10:43:16.998Z,3.38
2022-08-26T10:46:22.547Z,4.00
2022-08-26T10:49:29.398Z,3.47
2022-08-26T10:52:51.381Z,4.00
2022-08-26T10:56:19.223Z,4.18
2022-08-26T10:59:43.650Z,3.83
2022-08-26T11:02:52.122Z,3.90
2022-08-26T11:06:16.571Z,3.80
2022-08-26T11:09:45.857Z,3.45
2022-08-26T11:12:49.465Z,3.75
2022-08-26T11:15:54.179Z,3.97
2022-08-26T11:18:56.075Z,3.90
2022-08-26T11:22:06.787Z,3.92
2022-08-26T11:25:11.976Z,4.30
2022-08-26T11:28:34.283Z,4.13
2022-08-26T11:31:39.202Z,4.20
2022-08-26T11:38:00.530Z,4.07
2022-08-26T11:41:09.966Z,3.78
2022-08-26T11:44:16.134Z,4.15
2022-08-26T11:47:27.302Z,4.32
2022-08-26T11:50:38.860Z,4.32
2022-08-26T11:53:47.351Z,4.07
2022-08-26T11:56:53.151Z,4.78
2022-08-26T11:59:56.610Z,4.15
2022-08-26T12:03:06.919Z,4.32
2022-08-26T12:06:43.336Z,4.72
2022-08-26T12:09:57.547Z,4.53
2022-08-26T12:13:01.701Z,4.15
2022-08-26T12:16:03.696Z,3.92
2022-08-26T12:19:27.599Z,4.20
2022-08-26T12:22:36.087Z,3.88
2022-08-26T12:25:38.919Z,4.07
2022-08-26T12:29:19.708Z,4.10
2022-08-26T12:32:24.903Z,4.05
2022-08-26T12:35:28.902Z,3.80
2022-08-26T12:38:45.025Z,4.07
2022-08-26T12:41:53.849Z,3.90
2022-08-26T12:45:06.560Z,3.95
2022-08-26T12:48:30.323Z,4.00
2022-08-26T12:51:33.115Z,3.92
2022-08-26T12:54:56.849Z,3.75
2022-08-26T12:58:23.566Z,3.33
2022-08-26T13:01:25.946Z,3.72
2022-08-26T13:04:39.816Z,3.53
2022-08-26T13:07:41.511Z,3.15
2022-08-26T13:10:47.763Z,3.30
2022-08-26T13:14:10.539Z,3.88
2022-08-26T13:17:12.207Z,3.60
2022-08-26T13:20:14.699Z,4.50
2022-08-26T13:23:17.413Z,3.92
2022-08-26T13:26:20.128Z,3.78
2022-08-26T13:29:23.871Z,3.95
2022-08-26T13:32:27.948Z,3.78
2022-08-26T13:35:29.968Z,4.25
2022-08-26T13:38:33.099Z,3.95
2022-08-26T13:41:36.756Z,3.85
2022-08-26T13:44:39.237Z,3.92
2022-08-26T13:47:40.938Z,4.05
2022-08-26T13:50:43.402Z,4.60
2022-08-26T13:53:45.712Z,4.65
2022-08-26T14:00:58.285Z,4.50
2022-08-26T14:04:00.138Z,4.65
2022-08-26T14:07:02.114Z,4.30
2022-08-26T14:10:04.484Z,5.32
2022-08-26T14:13:07.683Z,5.18
2022-08-26T14:16:13.851Z,5.05
2022-08-26T14:19:16.317Z,5.28
2022-08-26T14:22:21.364Z,5.65
2022-08-26T14:25:24.102Z,6.30
2022-08-26T14:31:29.830Z,6.47
2022-08-26T14:34:32.847Z,6.88
2022-08-26T14:37:35.158Z,6.90
2022-08-26T14:40:39.403Z,6.72
2022-08-26T14:43:49.381Z,6.60
2022-08-26T14:46:53.015Z,5.20
2022-08-26T14:49:57.758Z,5.28
2022-08-26T14:53:19.707Z,5.10
2022-08-26T14:59:50.529Z,5.00
2022-08-26T15:06:21.155Z,5.45
2022-08-26T15:09:24.670Z,4.80
2022-08-26T15:12:26.784Z,5.68
2022-08-26T15:15:29.686Z,5.43
2022-08-26T15:18:31.891Z,5.72
2022-08-26T15:21:37.034Z,5.40
2022-08-26T15:24:38.814Z,5.97
2022-08-26T15:27:43.587Z,6.75
2022-08-26T15:30:46.992Z,5.95
2022-08-26T15:33:49.465Z,6.50
2022-08-26T15:36:52.378Z,6.75
2022-08-26T15:39:59.936Z,6.78
2022-08-26T15:43:25.626Z,7.00
2022-08-26T15:46:38.714Z,6.47
2022-08-26T15:49:41.278Z,6.72
2022-08-26T15:52:42.945Z,7.13
2022-08-26T15:55:45.009Z,6.72
2022-08-26T15:58:47.013Z,7.07
2022-08-26T16:01:49.656Z,7.90
2022-08-26T16:04:51.686Z,7.45
2022-08-26T16:07:56.202Z,7.60
2022-08-26T16:11:03.517Z,6.70
2022-08-26T16:14:05.985Z,7.43
2022-08-26T16:17:10.223Z,7.60
2022-08-26T16:20:13.465Z,6.47
2022-08-26T16:23:17.856Z,8.20
2022-08-26T16:26:22.958Z,7.47
2022-08-26T16:29:25.103Z,7.18
2022-08-26T16:32:30.722Z,7.60
2022-08-26T16:35:33.449Z,6.85
2022-08-26T16:38:36.623Z,5.95
2022-08-26T16:41:38.948Z,6.28
2022-08-26T16:44:49.032Z,6.25
2022-08-26T16:47:52.015Z,6.82
2022-08-26T16:50:55.611Z,6.88
2022-08-26T16:53:58.328Z,6.70
2022-08-26T16:57:00.580Z,6.18
2022-08-26T17:00:09.659Z,7.05
2022-08-26T17:03:17.531Z,7.00
2022-08-26T17:06:23.579Z,7.13
2022-08-26T17:09:26.470Z,8.75
2022-08-26T17:12:28.851Z,8.25
2022-08-26T17:15:33.914Z,8.48
2022-08-26T17:18:36.797Z,6.55
2022-08-26T17:21:43.471Z,6.70
2022-08-26T17:25:16.278Z,6.32
2022-08-26T17:28:28.611Z,6.32
2022-08-26T17:46:09.682Z,5.95
2022-08-26T17:49:21.985Z,6.75
2022-08-26T17:52:24.281Z,6.93
2022-08-26T17:55:26.129Z,7.40
2022-08-26T17:58:28.354Z,7.30
2022-08-26T18:01:31.349Z,7.07
2022-08-26T18:08:12.804Z,6.43
2022-08-26T18:11:20.230Z,5.28
2022-08-26T18:17:54.167Z,3.97
2022-08-26T18:21:33.893Z,4.28
2022-08-26T18:24:38.283Z,4.07
2022-08-26T18:38:34.586Z,5.07
2022-08-26T18:41:49.295Z,5.15
2022-08-26T18:44:51.797Z,5.50
2022-08-26T18:47:54.320Z,6.28
2022-08-26T18:51:08.000Z,5.60
2022-08-26T18:54:15.653Z,6.57
2022-08-26T18:57:20.896Z,7.03
2022-08-26T19:00:22.735Z,6.45
2022-08-26T19:03:28.812Z,6.32
2022-08-26T19:09:35.516Z,6.75
2022-08-26T19:12:37.915Z,6.85
2022-08-26T19:15:44.855Z,6.78
2022-08-26T19:18:48.070Z,7.38
2022-08-26T19:21:50.399Z,6.18
2022-08-26T19:24:52.350Z,6.47
2022-08-26T19:27:54.203Z,6.22
2022-08-26T19:30:56.548Z,6.22
2022-08-26T19:33:59.098Z,5.70
2022-08-26T19:37:00.939Z,5.40
2022-08-26T19:40:08.408Z,5.88
2022-08-26T19:43:20.695Z,5.68
2022-08-26T19:46:26.750Z,6.10
2022-08-26T19:49:31.486Z,5.53
2022-08-26T19:52:34.703Z,5.77
2022-08-26T19:56:07.814Z,5.57
2022-08-26T19:59:24.512Z,4.85
2022-08-26T20:02:36.327Z,5.30
2022-08-26T20:05:55.875Z,4.57
2022-08-26T20:09:20.392Z,5.30
2022-08-26T20:17:01.244Z,4.95
2022-08-26T20:21:09.465Z,5.35
2022-08-26T20:21:11.178Z,5.00
2022-08-26T20:31:27.751Z,5.10
2022-08-26T20:34:34.063Z,4.97
2022-08-26T20:37:36.849Z,5.32
2022-08-26T20:40:49.205Z,5.55
2022-08-26T20:43:52.160Z,5.68
2022-08-26T20:47:15.345Z,5.55
2022-08-26T20:50:17.079Z,5.55
2022-08-26T20:53:21.924Z,5.88
2022-08-26T20:56:26.030Z,6.28
2022-08-26T20:59:27.779Z,6.15
2022-08-26T21:02:29.839Z,5.47
2022-08-26T21:05:37.677Z,5.85
2022-08-26T21:08:43.216Z,5.68
2022-08-26T21:12:16.798Z,6.05
2022-08-26T21:15:19.632Z,5.97
2022-08-26T21:18:23.320Z,6.45
2022-08-26T21:25:29.628Z,6.05
2022-08-26T21:28:35.594Z,6.18
2022-08-26T21:35:58.705Z,6.57
2022-08-26T21:39:01.383Z,6.50
2022-08-26T21:42:06.837Z,6.00
2022-08-26T21:45:12.580Z,6.20
2022-08-26T21:48:14.944Z,6.15
2022-08-26T21:51:19.281Z,5.72
2022-08-26T21:54:21.088Z,6.45
2022-08-26T21:57:24.756Z,6.18
2022-08-26T22:00:26.567Z,6.53
2022-08-26T22:03:29.196Z,6.25
2022-08-26T22:06:53.593Z,6.85
2022-08-26T22:09:55.504Z,6.15
2022-08-26T22:13:02.518Z,6.13
2022-08-26T22:16:06.810Z,6.33
2022-08-26T22:19:10.337Z,6.25
2022-08-26T22:22:15.659Z,6.40
2022-08-26T22:25:17.402Z,5.78
2022-08-26T22:28:19.763Z,5.72
2022-08-26T22:31:22.252Z,5.65
2022-08-26T22:34:30.352Z,5.82
2022-08-26T22:37:32.107Z,6.80
2022-08-26T22:40:35.456Z,6.88
2022-08-26T22:43:38.538Z,6.07
2022-08-26T22:46:41.764Z,5.53
2022-08-26T22:58:41.916Z,5.78
2022-08-26T23:05:23.256Z,6.68
2022-08-26T23:08:26.081Z,6.30
2022-08-26T23:12:04.394Z,6.45
2022-08-26T23:15:09.172Z,6.82
2022-08-26T23:18:12.419Z,6.30
2022-08-26T23:21:17.567Z,6.63
2022-08-26T23:24:20.779Z,6.60
2022-08-26T23:27:22.555Z,6.85
2022-08-26T23:30:26.660Z,6.65
2022-08-26T23:33:48.721Z,6.78
2022-08-26T23:36:52.727Z,6.75
2022-08-26T23:39:55.587Z,7.60
2022-08-26T23:42:59.444Z,7.03
2022-08-26T23:46:01.290Z,7.05
2022-08-26T23:49:04.508Z,6.78
2022-08-26T23:52:26.383Z,6.90
2022-08-26T23:55:28.363Z,6.38
2022-08-26T23:58:30.135Z,7.65
